createdAt,value
2019-01-11T00:00:00.430Z,3.06
2019-01-11T00:01:00.376Z,3.05
2019-01-11T00:02:00.352Z,3.09
2019-01-11T00:03:00.348Z,3.06
2019-01-11T00:04:00.306Z,3.03
2019-01-11T00:05:00.285Z,3.03
2019-01-11T00:06:00.244Z,2.97
2019-01-11T00:07:00.219Z,2.95
2019-01-11T00:08:00.191Z,3.00
2019-01-11T00:09:00.182Z,2.94
2019-01-11T00:10:00.216Z,2.93
2019-01-11T00:11:00.116Z,2.95
2019-01-11T00:12:00.088Z,2.90
2019-01-11T00:13:00.109Z,2.88
2019-01-11T00:14:00.034Z,2.85
2019-01-11T00:15:00.007Z,2.94
2019-01-11T00:15:59.981Z,2.90
2019-01-11T00:16:59.973Z,2.91
2019-01-11T00:17:59.938Z,2.95
2019-01-11T00:18:59.905Z,2.97
2019-01-11T00:20:03.453Z,2.97
2019-01-11T00:20:59.854Z,2.93
2019-01-11T00:21:59.833Z,2.93
2019-01-11T00:22:59.795Z,2.93
2019-01-11T00:23:59.772Z,2.90
2019-01-11T00:24:59.752Z,3.01
2019-01-11T00:25:59.728Z,2.95
2019-01-11T00:26:59.696Z,2.94
2019-01-11T00:27:59.666Z,2.93
2019-01-11T00:28:59.635Z,3.05
2019-01-11T00:29:59.617Z,2.95
2019-01-11T00:30:59.594Z,3.00
2019-01-11T00:31:59.557Z,3.00
2019-01-11T00:32:59.531Z,2.93
2019-01-11T00:33:59.503Z,2.97
2019-01-11T00:34:59.479Z,2.97
2019-01-11T00:35:59.454Z,2.90
2019-01-11T00:36:59.430Z,2.93
2019-01-11T00:37:59.501Z,2.97
2019-01-11T00:38:59.651Z,2.91
2019-01-11T00:39:59.347Z,2.93
2019-01-11T00:40:59.329Z,2.97
2019-01-11T00:41:59.293Z,2.90
2019-01-11T00:42:59.269Z,2.82
2019-01-11T00:43:59.239Z,2.90
2019-01-11T00:44:59.214Z,2.95
2019-01-11T00:45:59.186Z,2.93
2019-01-11T00:46:59.159Z,2.82
2019-01-11T00:47:59.134Z,2.94
2019-01-11T00:48:59.164Z,2.82
2019-01-11T00:49:59.079Z,2.97
2019-01-11T00:50:59.067Z,2.94
2019-01-11T00:51:59.026Z,2.98
2019-01-11T00:52:59.002Z,2.94
2019-01-11T00:53:58.975Z,2.95
2019-01-11T00:54:58.951Z,2.93
2019-01-11T00:55:58.922Z,2.98
2019-01-11T00:56:58.895Z,2.93
2019-01-11T00:57:58.875Z,2.85
2019-01-11T00:58:58.843Z,2.94
2019-01-11T00:59:58.817Z,2.93
2019-01-11T01:00:58.799Z,2.85
2019-01-11T01:01:58.763Z,2.82
2019-01-11T01:02:58.743Z,2.82
2019-01-11T01:03:58.713Z,2.93
2019-01-11T01:04:58.684Z,2.83
2019-01-11T01:05:58.662Z,2.94
2019-01-11T01:06:58.632Z,2.77
2019-01-11T01:07:58.609Z,2.88
2019-01-11T01:08:58.576Z,2.80
2019-01-11T01:09:58.552Z,2.82
2019-01-11T01:10:58.526Z,2.88
2019-01-11T01:11:58.507Z,2.90
2019-01-11T01:12:58.472Z,2.88
2019-01-11T01:13:58.444Z,2.95
2019-01-11T01:14:58.424Z,2.93
2019-01-11T01:15:58.390Z,2.94
2019-01-11T01:16:58.366Z,2.97
2019-01-11T01:17:58.343Z,2.94
2019-01-11T01:18:58.315Z,2.94
2019-01-11T01:19:58.389Z,2.93
2019-01-11T01:20:58.263Z,2.90
2019-01-11T01:21:58.240Z,2.94
2019-01-11T01:22:58.218Z,3.00
2019-01-11T01:23:58.186Z,3.05
2019-01-11T01:24:58.154Z,3.01
2019-01-11T01:25:58.131Z,3.09
2019-01-11T01:26:58.102Z,3.09
2019-01-11T01:27:58.073Z,3.09
2019-01-11T01:28:58.047Z,3.03
2019-01-11T01:29:58.021Z,3.00
2019-01-11T01:30:57.998Z,3.08
2019-01-11T01:31:57.976Z,3.09
2019-01-11T01:32:57.941Z,3.16
2019-01-11T01:33:57.978Z,3.08
2019-01-11T01:34:57.887Z,3.11
2019-01-11T01:35:57.860Z,3.12
2019-01-11T01:36:57.843Z,3.05
2019-01-11T01:37:57.810Z,3.06
2019-01-11T01:38:57.783Z,3.08
2019-01-11T01:39:57.754Z,3.05
2019-01-11T01:40:57.728Z,3.05
2019-01-11T01:41:57.701Z,2.97
2019-01-11T01:42:57.677Z,2.94
2019-01-11T01:43:57.659Z,3.05
2019-01-11T01:44:57.624Z,3.09
2019-01-11T01:45:57.597Z,3.09
2019-01-11T01:46:57.581Z,3.06
2019-01-11T01:47:57.542Z,3.03
2019-01-11T01:48:57.517Z,3.00
2019-01-11T01:49:57.491Z,3.03
2019-01-11T01:50:57.465Z,3.06
2019-01-11T01:51:57.437Z,3.05
2019-01-11T01:52:57.411Z,3.08
2019-01-11T01:53:57.387Z,3.06
2019-01-11T01:54:57.383Z,3.11
2019-01-11T01:55:57.332Z,3.06
2019-01-11T01:56:57.305Z,3.09
2019-01-11T01:57:57.297Z,3.03
2019-01-11T01:58:57.258Z,3.03
2019-01-11T01:59:57.224Z,3.05
2019-01-11T02:00:57.199Z,3.08
2019-01-11T02:01:57.227Z,3.05
2019-01-11T02:02:57.148Z,3.09
2019-01-11T02:03:57.121Z,3.03
2019-01-11T02:04:57.093Z,3.15
2019-01-11T02:05:57.066Z,3.15
2019-01-11T02:06:57.040Z,3.03
2019-01-11T02:07:57.016Z,3.08
2019-01-11T02:08:56.989Z,3.09
2019-01-11T02:09:56.959Z,3.03
2019-01-11T02:10:56.933Z,3.09
2019-01-11T02:11:56.906Z,3.12
2019-01-11T02:12:56.878Z,3.06
2019-01-11T02:13:56.857Z,3.12
2019-01-11T02:14:56.827Z,3.08
2019-01-11T02:15:56.798Z,3.08
2019-01-11T02:16:56.772Z,3.06
2019-01-11T02:17:56.765Z,3.01
2019-01-11T02:18:56.721Z,3.11
2019-01-11T02:19:56.692Z,3.05
2019-01-11T02:20:56.668Z,3.16
2019-01-11T02:21:56.641Z,3.13
2019-01-11T02:22:56.617Z,3.22
2019-01-11T02:23:56.594Z,3.13
2019-01-11T02:24:56.562Z,3.21
2019-01-11T02:25:56.535Z,3.21
2019-01-11T02:26:56.508Z,3.19
2019-01-11T02:27:56.482Z,3.18
2019-01-11T02:28:56.462Z,3.26
2019-01-11T02:29:56.428Z,3.21
2019-01-11T02:30:56.409Z,3.21
2019-01-11T02:31:56.377Z,3.16
2019-01-11T02:32:56.350Z,3.09
2019-01-11T02:33:56.322Z,3.06
2019-01-11T02:34:56.296Z,3.12
2019-01-11T02:35:56.267Z,3.16
2019-01-11T02:36:56.242Z,3.21
2019-01-11T02:37:56.268Z,3.15
2019-01-11T02:38:56.189Z,3.18
2019-01-11T02:39:56.161Z,3.24
2019-01-11T02:40:56.137Z,3.13
2019-01-11T02:41:56.110Z,3.21
2019-01-11T02:42:56.087Z,3.19
2019-01-11T02:43:56.063Z,3.16
2019-01-11T02:44:56.041Z,3.26
2019-01-11T02:45:56.011Z,3.27
2019-01-11T02:46:55.978Z,3.29
2019-01-11T02:47:55.949Z,3.34
2019-01-11T02:48:55.921Z,3.21
2019-01-11T02:49:55.898Z,3.18
2019-01-11T02:50:55.869Z,3.19
2019-01-11T02:51:55.850Z,3.16
2019-01-11T02:52:55.815Z,3.24
2019-01-11T02:53:55.798Z,3.21
2019-01-11T02:54:55.763Z,3.22
2019-01-11T02:55:55.739Z,3.19
2019-01-11T02:56:55.711Z,3.15
2019-01-11T02:57:55.685Z,3.15
2019-01-11T02:58:55.656Z,3.24
2019-01-11T02:59:55.632Z,3.19
2019-01-11T03:00:55.605Z,3.22
2019-01-11T03:01:55.601Z,3.21
2019-01-11T03:02:55.551Z,3.12
2019-01-11T03:03:55.531Z,3.13
2019-01-11T03:04:55.515Z,3.12
2019-01-11T03:05:55.480Z,3.15
2019-01-11T03:06:55.446Z,3.21
2019-01-11T03:07:55.417Z,3.16
2019-01-11T03:08:55.390Z,3.21
2019-01-11T03:09:55.365Z,3.24
2019-01-11T03:10:55.342Z,3.19
2019-01-11T03:11:55.310Z,3.22
2019-01-11T03:12:55.284Z,3.22
2019-01-11T03:13:55.260Z,3.27
2019-01-11T03:14:55.232Z,3.18
2019-01-11T03:15:55.204Z,3.24
2019-01-11T03:16:55.181Z,3.18
2019-01-11T03:17:55.152Z,3.19
2019-01-11T03:18:55.126Z,3.36
2019-01-11T03:19:55.107Z,3.33
2019-01-11T03:20:55.074Z,3.27
2019-01-11T03:21:55.043Z,3.27
2019-01-11T03:22:55.021Z,3.34
2019-01-11T03:23:54.997Z,3.40
2019-01-11T03:24:54.963Z,3.30
2019-01-11T03:25:54.964Z,3.29
2019-01-11T03:26:54.912Z,3.34
2019-01-11T03:27:54.886Z,3.30
2019-01-11T03:28:54.917Z,3.29
2019-01-11T03:29:54.835Z,3.33
2019-01-11T03:30:54.808Z,3.33
2019-01-11T03:31:54.781Z,3.33
2019-01-11T03:32:54.755Z,3.34
2019-01-11T03:33:54.725Z,3.37
2019-01-11T03:34:54.701Z,3.30
2019-01-11T03:35:54.671Z,3.43
2019-01-11T03:36:54.645Z,3.31
2019-01-11T03:37:54.619Z,3.31
2019-01-11T03:38:54.595Z,3.26
2019-01-11T03:39:54.566Z,3.36
2019-01-11T03:40:54.538Z,3.31
2019-01-11T03:41:54.520Z,3.30
2019-01-11T03:42:54.487Z,3.30
2019-01-11T03:43:54.459Z,3.30
2019-01-11T03:44:54.435Z,3.33
2019-01-11T03:45:54.407Z,3.36
2019-01-11T03:46:54.381Z,3.36
2019-01-11T03:47:54.355Z,3.27
2019-01-11T03:48:54.328Z,3.36
2019-01-11T03:49:54.894Z,3.31
2019-01-11T03:50:54.276Z,3.41
2019-01-11T03:51:54.248Z,3.45
2019-01-11T03:52:54.345Z,3.34
2019-01-11T03:53:54.193Z,3.40
2019-01-11T03:54:54.173Z,3.27
2019-01-11T03:55:54.289Z,3.36
2019-01-11T03:56:54.113Z,3.29
2019-01-11T03:57:54.088Z,3.21
2019-01-11T03:58:54.070Z,3.29
2019-01-11T03:59:54.043Z,3.33
2019-01-11T04:00:54.017Z,3.34
2019-01-11T04:01:53.993Z,3.31
2019-01-11T04:02:53.957Z,3.33
2019-01-11T04:03:53.932Z,3.40
2019-01-11T04:04:53.904Z,3.30
2019-01-11T04:05:53.876Z,3.30
2019-01-11T04:06:53.849Z,3.37
2019-01-11T04:07:53.826Z,3.40
2019-01-11T04:08:53.797Z,3.26
2019-01-11T04:09:53.776Z,3.41
2019-01-11T04:10:53.748Z,3.41
2019-01-11T04:11:53.716Z,3.27
2019-01-11T04:12:53.691Z,3.41
2019-01-11T04:13:53.663Z,3.37
2019-01-11T04:14:53.641Z,3.27
2019-01-11T04:15:53.611Z,3.37
2019-01-11T04:16:53.586Z,3.43
2019-01-11T04:17:53.557Z,3.36
2019-01-11T04:18:53.537Z,3.41
2019-01-11T04:19:53.512Z,3.43
2019-01-11T04:20:53.476Z,3.43
2019-01-11T04:21:53.451Z,3.36
2019-01-11T04:22:53.432Z,3.34
2019-01-11T04:23:53.548Z,3.46
2019-01-11T04:24:53.371Z,3.37
2019-01-11T04:25:53.354Z,3.40
2019-01-11T04:26:53.320Z,3.33
2019-01-11T04:27:53.295Z,3.36
2019-01-11T04:28:53.271Z,3.43
2019-01-11T04:29:53.239Z,3.49
2019-01-11T04:30:53.215Z,3.49
2019-01-11T04:31:53.189Z,3.34
2019-01-11T04:32:53.161Z,3.34
2019-01-11T04:33:53.132Z,3.40
2019-01-11T04:34:53.107Z,3.40
2019-01-11T04:35:53.088Z,3.52
2019-01-11T04:36:53.055Z,3.56
2019-01-11T04:37:53.109Z,3.48
2019-01-11T04:38:53.002Z,3.55
2019-01-11T04:39:52.975Z,3.46
2019-01-11T04:40:52.947Z,3.36
2019-01-11T04:41:52.922Z,3.46
2019-01-11T04:42:52.896Z,3.53
2019-01-11T04:43:52.878Z,3.53
2019-01-11T04:44:52.845Z,3.49
2019-01-11T04:45:52.816Z,3.50
2019-01-11T04:46:52.791Z,3.43
2019-01-11T04:47:52.770Z,3.37
2019-01-11T04:48:52.737Z,3.40
2019-01-11T04:49:52.732Z,3.37
2019-01-11T04:50:52.687Z,3.36
2019-01-11T04:51:52.659Z,3.48
2019-01-11T04:52:52.637Z,3.36
2019-01-11T04:53:52.607Z,3.40
2019-01-11T04:54:52.577Z,3.37
2019-01-11T04:55:52.553Z,3.46
2019-01-11T04:56:52.526Z,3.46
2019-01-11T04:57:52.500Z,3.48
2019-01-11T04:58:52.474Z,3.41
2019-01-11T04:59:52.446Z,3.46
2019-01-11T05:00:52.425Z,3.46
2019-01-11T05:01:52.393Z,3.49
2019-01-11T05:02:52.367Z,3.50
2019-01-11T05:03:52.341Z,3.56
2019-01-11T05:04:52.313Z,3.55
2019-01-11T05:05:52.286Z,3.53
2019-01-11T05:06:52.262Z,3.52
2019-01-11T05:07:52.237Z,3.63
2019-01-11T05:08:52.209Z,3.63
2019-01-11T05:09:52.188Z,3.77
2019-01-11T05:10:52.159Z,3.67
2019-01-11T05:11:52.300Z,3.70
2019-01-11T05:12:52.107Z,3.68
2019-01-11T05:13:52.127Z,3.67
2019-01-11T05:14:52.058Z,3.64
2019-01-11T05:15:52.022Z,3.67
2019-01-11T05:16:51.995Z,3.64
2019-01-11T05:17:51.976Z,3.67
2019-01-11T05:18:51.948Z,3.67
2019-01-11T05:19:51.915Z,3.52
2019-01-11T05:20:51.903Z,3.61
2019-01-11T05:21:51.870Z,3.53
2019-01-11T05:22:51.838Z,3.64
2019-01-11T05:23:51.812Z,3.61
2019-01-11T05:24:51.784Z,3.52
2019-01-11T05:25:51.761Z,3.66
2019-01-11T05:26:51.736Z,3.66
2019-01-11T05:27:51.708Z,3.68
2019-01-11T05:28:51.678Z,3.67
2019-01-11T05:29:51.654Z,3.64
2019-01-11T05:30:51.628Z,3.64
2019-01-11T05:31:51.609Z,3.70
2019-01-11T05:32:51.574Z,3.73
2019-01-11T05:33:51.547Z,3.81
2019-01-11T05:34:51.522Z,3.68
2019-01-11T05:35:51.495Z,3.81
2019-01-11T05:36:51.483Z,3.85
2019-01-11T05:37:51.447Z,3.84
2019-01-11T05:38:51.425Z,3.78
2019-01-11T05:39:51.390Z,3.81
2019-01-11T05:40:51.374Z,3.85
2019-01-11T05:41:51.343Z,3.76
2019-01-11T05:42:51.312Z,3.77
2019-01-11T05:43:51.290Z,3.76
2019-01-11T05:44:51.333Z,3.70
2019-01-11T05:45:51.236Z,3.73
2019-01-11T05:46:51.207Z,3.71
2019-01-11T05:47:51.179Z,3.84
2019-01-11T05:48:51.152Z,3.77
2019-01-11T05:49:51.128Z,3.76
2019-01-11T05:50:51.110Z,3.74
2019-01-11T05:51:51.073Z,3.89
2019-01-11T05:52:51.047Z,3.84
2019-01-11T05:53:51.021Z,3.73
2019-01-11T05:54:51.000Z,3.84
2019-01-11T05:55:50.971Z,3.78
2019-01-11T05:56:50.946Z,3.88
2019-01-11T05:57:50.927Z,3.92
2019-01-11T05:58:50.902Z,3.89
2019-01-11T05:59:50.864Z,3.85
2019-01-11T06:00:50.842Z,3.85
2019-01-11T06:01:50.824Z,3.94
2019-01-11T06:02:50.787Z,3.96
2019-01-11T06:03:50.759Z,3.86
2019-01-11T06:04:50.744Z,3.82
2019-01-11T06:05:50.710Z,3.84
2019-01-11T06:06:50.688Z,3.82
2019-01-11T06:07:50.653Z,3.92
2019-01-11T06:08:50.629Z,3.85
2019-01-11T06:09:50.611Z,3.94
2019-01-11T06:10:50.576Z,3.91
2019-01-11T06:11:50.549Z,3.88
2019-01-11T06:12:50.523Z,4.03
2019-01-11T06:13:50.496Z,3.92
2019-01-11T06:14:50.481Z,3.91
2019-01-11T06:15:50.454Z,3.91
2019-01-11T06:16:50.419Z,3.89
2019-01-11T06:17:50.394Z,3.94
2019-01-11T06:18:50.375Z,3.95
2019-01-11T06:19:50.339Z,3.85
2019-01-11T06:20:50.315Z,3.95
2019-01-11T06:21:50.287Z,3.92
2019-01-11T06:22:50.261Z,3.91
2019-01-11T06:23:50.370Z,3.92
2019-01-11T06:24:50.213Z,3.88
2019-01-11T06:25:50.184Z,3.91
2019-01-11T06:26:50.232Z,4.02
2019-01-11T06:27:50.129Z,4.03
2019-01-11T06:28:50.103Z,4.02
2019-01-11T06:29:50.088Z,3.95
2019-01-11T06:30:50.053Z,4.00
2019-01-11T06:31:50.024Z,4.00
2019-01-11T06:32:49.997Z,3.99
2019-01-11T06:33:49.979Z,4.03
2019-01-11T06:34:49.955Z,4.00
2019-01-11T06:35:49.923Z,4.00
2019-01-11T06:36:49.906Z,4.00
2019-01-11T06:37:49.867Z,4.00
2019-01-11T06:38:49.840Z,4.00
2019-01-11T06:39:49.814Z,4.10
2019-01-11T06:40:49.788Z,4.20
2019-01-11T06:41:49.769Z,4.18
2019-01-11T06:42:49.752Z,4.13
2019-01-11T06:43:49.710Z,4.24
2019-01-11T06:44:49.691Z,4.18
2019-01-11T06:45:49.663Z,4.16
2019-01-11T06:46:49.640Z,4.24
2019-01-11T06:47:49.606Z,4.24
2019-01-11T06:48:49.579Z,4.31
2019-01-11T06:49:49.553Z,4.31
2019-01-11T06:50:49.527Z,4.31
2019-01-11T06:51:49.553Z,4.22
2019-01-11T06:52:49.472Z,4.25
2019-01-11T06:53:49.447Z,4.27
2019-01-11T06:54:49.439Z,4.30
2019-01-11T06:55:49.401Z,4.28
2019-01-11T06:56:49.369Z,4.42
2019-01-11T06:57:49.355Z,4.38
2019-01-11T06:58:49.341Z,4.38
2019-01-11T06:59:49.291Z,4.22
2019-01-11T07:00:49.267Z,4.22
2019-01-11T07:01:49.246Z,4.25
2019-01-11T07:02:49.219Z,4.22
2019-01-11T07:03:49.193Z,4.30
2019-01-11T07:04:49.172Z,4.25
2019-01-11T07:05:49.144Z,4.25
2019-01-11T07:06:49.110Z,4.21
2019-01-11T07:07:49.086Z,4.21
2019-01-11T07:08:49.057Z,4.22
2019-01-11T07:09:49.033Z,4.24
2019-01-11T07:10:49.004Z,4.36
2019-01-11T07:11:48.978Z,4.25
2019-01-11T07:12:48.961Z,4.22
2019-01-11T07:13:48.932Z,4.25
2019-01-11T07:14:48.900Z,4.30
2019-01-11T07:15:48.882Z,4.22
2019-01-11T07:16:48.850Z,4.20
2019-01-11T07:17:48.821Z,4.32
2019-01-11T07:18:48.822Z,4.20
2019-01-11T07:19:48.769Z,4.34
2019-01-11T07:20:48.744Z,4.31
2019-01-11T07:21:48.718Z,4.30
2019-01-11T07:22:48.694Z,4.24
2019-01-11T07:23:48.668Z,4.22
2019-01-11T07:24:48.641Z,4.28
2019-01-11T07:25:48.622Z,4.27
2019-01-11T07:26:48.588Z,4.36
2019-01-11T07:27:48.565Z,4.32
2019-01-11T07:28:48.536Z,4.27
2019-01-11T07:29:48.516Z,4.34
2019-01-11T07:30:48.491Z,4.40
2019-01-11T07:31:48.459Z,4.36
2019-01-11T07:32:48.436Z,4.43
2019-01-11T07:33:48.411Z,4.40
2019-01-11T07:34:48.379Z,4.30
2019-01-11T07:35:48.367Z,4.27
2019-01-11T07:36:48.342Z,4.28
2019-01-11T07:37:48.305Z,4.28
2019-01-11T07:38:48.277Z,4.30
2019-01-11T07:39:48.249Z,4.32
2019-01-11T07:40:48.222Z,4.34
2019-01-11T07:41:48.196Z,4.38
2019-01-11T07:42:48.170Z,4.32
2019-01-11T07:43:48.145Z,4.39
2019-01-11T07:44:48.127Z,4.38
2019-01-11T07:45:48.092Z,4.32
2019-01-11T07:46:48.078Z,4.34
2019-01-11T07:47:48.043Z,4.34
2019-01-11T07:48:48.025Z,4.45
2019-01-11T07:49:47.999Z,4.53
2019-01-11T07:50:49.398Z,4.46
2019-01-11T07:51:47.936Z,4.53
2019-01-11T07:52:47.913Z,4.56
2019-01-11T07:53:47.885Z,4.58
2019-01-11T07:54:47.861Z,4.61
2019-01-11T07:55:47.834Z,4.60
2019-01-11T07:56:47.818Z,4.60
2019-01-11T07:57:47.783Z,4.58
2019-01-11T07:58:47.760Z,4.57
2019-01-11T07:59:47.738Z,4.58
2019-01-11T08:00:47.716Z,4.61
2019-01-11T08:01:47.685Z,4.64
2019-01-11T08:02:47.650Z,4.63
2019-01-11T08:03:47.636Z,4.70
2019-01-11T08:04:47.598Z,4.75
2019-01-11T08:05:47.574Z,4.76
2019-01-11T08:06:47.550Z,4.74
2019-01-11T08:07:47.523Z,4.70
2019-01-11T08:08:47.503Z,4.74
2019-01-11T08:09:47.489Z,4.60
2019-01-11T08:10:47.445Z,4.78
2019-01-11T08:11:47.419Z,4.83
2019-01-11T08:12:47.401Z,4.82
2019-01-11T08:13:47.369Z,4.82
2019-01-11T08:14:47.357Z,4.76
2019-01-11T08:15:47.318Z,4.76
2019-01-11T08:16:47.292Z,4.76
2019-01-11T08:17:47.266Z,4.78
2019-01-11T08:18:47.298Z,4.74
2019-01-11T08:19:47.211Z,4.67
2019-01-11T08:20:47.197Z,4.74
2019-01-11T08:21:47.170Z,4.82
2019-01-11T08:22:47.136Z,4.79
2019-01-11T08:23:47.116Z,4.82
2019-01-11T08:24:47.083Z,4.79
2019-01-11T08:25:47.058Z,4.89
2019-01-11T08:26:47.032Z,4.84
2019-01-11T08:27:47.012Z,4.83
2019-01-11T08:28:46.980Z,4.84
2019-01-11T08:29:46.955Z,4.83
2019-01-11T08:30:46.928Z,4.89
2019-01-11T08:31:46.903Z,4.86
2019-01-11T08:32:46.899Z,4.84
2019-01-11T08:33:46.854Z,4.87
2019-01-11T08:34:46.835Z,4.95
2019-01-11T08:35:46.800Z,4.92
2019-01-11T08:36:46.779Z,4.84
2019-01-11T08:37:46.751Z,4.95
2019-01-11T08:38:46.724Z,4.95
2019-01-11T08:39:46.701Z,4.95
2019-01-11T08:40:46.671Z,4.95
2019-01-11T08:41:46.655Z,4.97
2019-01-11T08:42:46.626Z,5.02
2019-01-11T08:43:46.595Z,5.04
2019-01-11T08:44:46.572Z,4.95
2019-01-11T08:45:46.550Z,4.92
2019-01-11T08:46:46.524Z,5.07
2019-01-11T08:47:46.491Z,5.02
2019-01-11T08:48:46.467Z,5.01
2019-01-11T08:49:46.441Z,5.04
2019-01-11T08:50:46.422Z,5.02
2019-01-11T08:51:46.396Z,5.01
2019-01-11T08:52:46.364Z,4.95
2019-01-11T08:53:46.348Z,5.00
2019-01-11T08:54:46.326Z,5.08
2019-01-11T08:55:46.289Z,5.07
2019-01-11T08:56:46.261Z,5.02
2019-01-11T08:57:46.236Z,5.02
2019-01-11T08:58:46.220Z,5.05
2019-01-11T08:59:46.185Z,5.02
2019-01-11T09:00:46.170Z,5.05
2019-01-11T09:01:46.134Z,5.01
2019-01-11T09:02:46.110Z,4.98
2019-01-11T09:03:46.084Z,5.02
2019-01-11T09:04:46.063Z,5.10
2019-01-11T09:05:46.032Z,5.13
2019-01-11T09:06:46.007Z,5.04
2019-01-11T09:07:45.982Z,5.15
2019-01-11T09:08:45.958Z,5.16
2019-01-11T09:09:45.936Z,5.05
2019-01-11T09:10:45.904Z,5.00
2019-01-11T09:11:45.930Z,5.02
2019-01-11T09:12:45.865Z,5.04
2019-01-11T09:13:45.828Z,5.15
2019-01-11T09:14:45.804Z,5.04
2019-01-11T09:15:45.777Z,5.07
2019-01-11T09:16:45.754Z,5.05
2019-01-11T09:17:45.729Z,5.15
2019-01-11T09:18:45.707Z,5.19
2019-01-11T09:19:45.681Z,5.15
2019-01-11T09:20:45.655Z,5.19
2019-01-11T09:21:45.630Z,5.22
2019-01-11T09:22:45.604Z,5.22
2019-01-11T09:23:45.578Z,5.31
2019-01-11T09:24:45.556Z,5.25
2019-01-11T09:25:45.528Z,5.43
2019-01-11T09:26:45.506Z,5.31
2019-01-11T09:27:45.479Z,5.31
2019-01-11T09:28:45.467Z,5.43
2019-01-11T09:29:45.435Z,5.44
2019-01-11T09:30:45.409Z,5.29
2019-01-11T09:31:45.374Z,5.41
2019-01-11T09:32:45.379Z,5.43
2019-01-11T09:33:45.329Z,5.46
2019-01-11T09:34:45.313Z,5.46
2019-01-11T09:35:45.313Z,5.46
2019-01-11T09:36:45.413Z,5.44
2019-01-11T09:37:45.226Z,5.46
2019-01-11T09:38:45.209Z,5.49
2019-01-11T09:39:45.176Z,5.51
2019-01-11T09:40:45.162Z,5.54
2019-01-11T09:41:45.125Z,5.55
2019-01-11T09:42:45.103Z,5.58
2019-01-11T09:43:45.082Z,5.61
2019-01-11T09:44:45.052Z,5.64
2019-01-11T09:45:45.029Z,5.56
2019-01-11T09:46:45.006Z,5.72
2019-01-11T09:47:44.977Z,5.69
2019-01-11T09:48:44.951Z,5.62
2019-01-11T09:49:44.930Z,5.76
2019-01-11T09:50:44.902Z,5.76
2019-01-11T09:51:44.877Z,5.73
2019-01-11T09:52:44.855Z,5.79
2019-01-11T09:53:44.834Z,5.79
2019-01-11T09:54:46.043Z,5.79
2019-01-11T09:55:44.780Z,5.72
2019-01-11T09:56:44.755Z,5.74
2019-01-11T09:57:44.740Z,5.77
2019-01-11T09:58:44.708Z,5.72
2019-01-11T09:59:44.700Z,5.73
2019-01-11T10:00:44.658Z,5.80
2019-01-11T10:01:44.640Z,5.81
2019-01-11T10:02:44.617Z,5.80
2019-01-11T10:03:44.593Z,5.84
2019-01-11T10:04:44.572Z,5.87
2019-01-11T10:05:44.533Z,5.87
2019-01-11T10:06:44.509Z,5.95
2019-01-11T10:07:44.488Z,5.91
2019-01-11T10:08:44.463Z,6.05
2019-01-11T10:09:44.435Z,5.98
2019-01-11T10:10:44.411Z,6.10
2019-01-11T10:11:44.386Z,6.06
2019-01-11T10:12:44.362Z,6.06
2019-01-11T10:13:44.336Z,6.02
2019-01-11T10:14:44.316Z,5.95
2019-01-11T10:15:44.295Z,6.06
2019-01-11T10:16:44.264Z,5.94
2019-01-11T10:17:44.240Z,6.05
2019-01-11T10:18:44.215Z,6.06
2019-01-11T10:19:44.191Z,6.06
2019-01-11T10:20:44.163Z,6.05
2019-01-11T10:21:44.143Z,6.10
2019-01-11T10:22:44.140Z,6.09
2019-01-11T10:23:44.093Z,6.16
2019-01-11T10:24:44.066Z,6.20
2019-01-11T10:25:44.042Z,6.26
2019-01-11T10:26:44.044Z,6.32
2019-01-11T10:27:43.993Z,6.28
2019-01-11T10:28:44.020Z,6.29
2019-01-11T10:29:43.947Z,6.28
2019-01-11T10:30:43.920Z,6.29
2019-01-11T10:31:43.907Z,6.29
2019-01-11T10:32:43.873Z,6.31
2019-01-11T10:33:43.849Z,6.29
2019-01-11T10:34:43.824Z,6.36
2019-01-11T10:35:43.800Z,6.32
2019-01-11T10:36:43.776Z,6.32
2019-01-11T10:37:43.752Z,6.34
2019-01-11T10:38:43.726Z,6.32
2019-01-11T10:39:43.915Z,6.34
2019-01-11T10:40:43.685Z,6.39
2019-01-11T10:41:43.654Z,6.46
2019-01-11T10:42:43.636Z,6.50
2019-01-11T10:43:43.607Z,6.54
2019-01-11T10:44:43.620Z,6.64
2019-01-11T10:45:43.556Z,6.68
2019-01-11T10:46:49.014Z,6.71
2019-01-11T10:47:43.509Z,6.65
2019-01-11T10:48:43.483Z,6.77
2019-01-11T10:49:43.465Z,6.74
2019-01-11T10:50:43.439Z,6.77
2019-01-11T10:51:43.540Z,6.82
2019-01-11T10:52:43.397Z,6.82
2019-01-11T10:53:43.373Z,6.80
2019-01-11T10:54:43.440Z,6.90
2019-01-11T10:55:43.320Z,6.90
2019-01-11T10:56:43.296Z,6.86
2019-01-11T10:57:43.290Z,6.92
2019-01-11T10:58:43.247Z,6.95
2019-01-11T10:59:43.225Z,7.01
2019-01-11T11:00:43.196Z,7.07
2019-01-11T11:01:43.173Z,7.03
2019-01-11T11:02:43.166Z,6.97
2019-01-11T11:03:43.129Z,7.00
2019-01-11T11:04:43.111Z,7.04
2019-01-11T11:05:43.079Z,7.03
2019-01-11T11:06:43.055Z,7.11
2019-01-11T11:07:43.039Z,7.00
2019-01-11T11:08:43.006Z,7.04
2019-01-11T11:09:42.982Z,6.97
2019-01-11T11:10:42.958Z,7.05
2019-01-11T11:11:42.930Z,7.14
2019-01-11T11:12:42.911Z,7.07
2019-01-11T11:13:42.886Z,7.15
2019-01-11T11:14:42.882Z,7.08
2019-01-11T11:15:42.836Z,7.14
2019-01-11T11:16:42.812Z,7.10
2019-01-11T11:17:42.801Z,7.11
2019-01-11T11:18:42.767Z,7.25
2019-01-11T11:19:42.742Z,7.14
2019-01-11T11:20:42.718Z,7.21
2019-01-11T11:21:42.691Z,7.21
2019-01-11T11:22:42.671Z,7.18
2019-01-11T11:23:42.671Z,7.14
2019-01-11T11:24:42.622Z,7.26
2019-01-11T11:25:42.611Z,7.14
2019-01-11T11:26:42.584Z,7.25
2019-01-11T11:27:42.609Z,7.19
2019-01-11T11:28:42.532Z,7.28
2019-01-11T11:29:42.502Z,7.23
2019-01-11T11:30:42.529Z,7.28
2019-01-11T11:31:42.465Z,7.28
2019-01-11T11:32:42.430Z,7.44
2019-01-11T11:33:42.424Z,7.31
2019-01-11T11:34:42.383Z,7.29
2019-01-11T11:35:42.360Z,7.40
2019-01-11T11:36:42.352Z,7.46
2019-01-11T11:37:42.316Z,7.32
2019-01-11T11:38:42.294Z,7.47
2019-01-11T11:39:42.267Z,7.32
2019-01-11T11:40:42.243Z,7.37
2019-01-11T11:41:42.217Z,7.37
2019-01-11T11:42:42.194Z,7.41
2019-01-11T11:43:42.169Z,7.43
2019-01-11T11:44:42.157Z,7.46
2019-01-11T11:45:42.126Z,7.44
2019-01-11T11:46:42.099Z,7.50
2019-01-11T11:47:42.075Z,7.51
2019-01-11T11:48:42.060Z,7.44
2019-01-11T11:49:42.028Z,7.53
2019-01-11T11:50:42.004Z,7.53
2019-01-11T11:51:41.981Z,7.61
2019-01-11T11:52:41.958Z,7.51
2019-01-11T11:53:41.940Z,7.59
2019-01-11T11:54:41.911Z,7.61
2019-01-11T11:55:41.894Z,7.59
2019-01-11T11:56:41.862Z,7.62
2019-01-11T11:57:41.839Z,7.58
2019-01-11T11:58:41.818Z,7.67
2019-01-11T11:59:41.798Z,7.61
2019-01-11T12:00:41.772Z,7.64
2019-01-11T12:01:41.746Z,7.64
2019-01-11T12:02:41.721Z,7.62
2019-01-11T12:03:41.696Z,7.62
2019-01-11T12:04:41.676Z,7.67
2019-01-11T12:05:41.648Z,7.74
2019-01-11T12:06:41.627Z,7.64
2019-01-11T12:07:41.601Z,7.70
2019-01-11T12:08:41.596Z,7.62
2019-01-11T12:09:41.559Z,7.70
2019-01-11T12:10:41.532Z,7.64
2019-01-11T12:11:41.514Z,7.59
2019-01-11T12:12:41.511Z,7.72
2019-01-11T12:13:41.463Z,7.69
2019-01-11T12:14:41.440Z,7.70
2019-01-11T12:15:41.428Z,7.70
2019-01-11T12:16:41.389Z,7.69
2019-01-11T12:17:41.374Z,7.69
2019-01-11T12:18:41.390Z,7.67
2019-01-11T12:19:41.330Z,7.67
2019-01-11T12:20:41.296Z,7.75
2019-01-11T12:21:47.501Z,7.74
2019-01-11T12:22:41.261Z,7.75
2019-01-11T12:23:41.225Z,7.78
2019-01-11T12:24:41.201Z,7.77
2019-01-11T12:25:41.179Z,7.75
2019-01-11T12:26:41.155Z,7.74
2019-01-11T12:27:41.130Z,7.74
2019-01-11T12:28:41.107Z,7.77
2019-01-11T12:29:41.083Z,7.75
2019-01-11T12:30:41.060Z,7.80
2019-01-11T12:31:41.052Z,7.91
2019-01-11T12:32:41.017Z,7.78
2019-01-11T12:33:40.989Z,7.84
2019-01-11T12:34:40.975Z,7.87
2019-01-11T12:35:40.948Z,7.91
2019-01-11T12:36:40.919Z,7.81
2019-01-11T12:37:40.900Z,7.88
2019-01-11T12:38:40.889Z,7.90
2019-01-11T12:39:40.859Z,7.83
2019-01-11T12:40:40.825Z,7.87
2019-01-11T12:41:40.813Z,7.95
2019-01-11T12:42:40.784Z,7.95
2019-01-11T12:43:40.770Z,7.83
2019-01-11T12:44:40.735Z,7.85
2019-01-11T12:45:40.723Z,7.93
2019-01-11T12:46:40.688Z,7.85
2019-01-11T12:47:40.671Z,7.87
2019-01-11T12:48:40.645Z,7.90
2019-01-11T12:49:40.626Z,7.90
2019-01-11T12:50:40.593Z,7.91
2019-01-11T12:51:40.572Z,7.91
2019-01-11T12:52:40.552Z,7.96
2019-01-11T12:53:40.524Z,7.95
2019-01-11T12:54:40.501Z,8.02
2019-01-11T12:55:40.476Z,7.96
2019-01-11T12:56:40.458Z,8.05
2019-01-11T12:57:40.427Z,8.01
2019-01-11T12:58:40.403Z,8.05
2019-01-11T12:59:40.388Z,8.09
2019-01-11T13:00:40.358Z,8.16
2019-01-11T13:01:40.337Z,8.11
2019-01-11T13:02:40.313Z,8.09
2019-01-11T13:03:40.291Z,8.26
2019-01-11T13:04:40.269Z,8.21
2019-01-11T13:05:40.241Z,8.24
2019-01-11T13:06:40.219Z,8.27
2019-01-11T13:07:41.214Z,8.28
2019-01-11T13:08:40.176Z,8.38
2019-01-11T13:09:40.160Z,8.39
2019-01-11T13:10:40.133Z,8.44
2019-01-11T13:11:40.115Z,8.44
2019-01-11T13:12:40.085Z,8.49
2019-01-11T13:13:40.073Z,8.42
2019-01-11T13:14:40.044Z,8.57
2019-01-11T13:15:40.017Z,8.57
2019-01-11T13:16:39.989Z,8.72
2019-01-11T13:17:39.964Z,8.60